Time,TemperatureF,DewpointF,PressureIn,WindDirection,WindDirectionDegrees,WindSpeedMPH,WindSpeedGustMPH,Humidity,HourlyPrecipIn,Conditions,Clouds,dailyrainin,SolarRadiationWatts/m^2,SoftwareType,DateUTC
2013-01-01 00:02:00,12.0,9.0,-100.00,West,268,0.0,2.0,86,-99.99,,,0.00,0.000000,,2013-01-01 08:02:00,
2013-01-01 00:11:00,12.0,9.0,-100.00,West,268,0.0,2.0,86,-99.99,,,0.00,0.000000,,2013-01-01 08:11:00,
2013-01-01 00:42:00,12.0,9.0,-100.00,South,172,0.0,2.0,86,-99.99,,,0.00,0.000000,,2013-01-01 08:42:00,
2013-01-01 00:53:00,12.0,9.0,-100.00,South,172,0.0,2.0,86,-99.99,,,0.00,0.000000,,2013-01-01 08:53:00,
2013-01-01 01:02:00,12.0,9.0,-100.00,South,172,0.0,2.0,86,-99.99,,,0.00,0.000000,,2013-01-01 09:02:00,
2013-01-01 01:11:00,12.0,9.0,-100.00,South,172,0.0,2.0,86,-99.99,,,0.00,0.000000,,2013-01-01 09:11:00,
2013-01-01 01:42:00,13.0,9.0,-100.00,SSW,207,0.0,2.0,85,-99.99,,,0.00,0.000000,,2013-01-01 09:42:00,
2013-01-01 01:52:00,13.0,9.0,-100.00,SSW,207,0.0,2.0,85,-99.99,,,0.00,0.000000,,2013-01-01 09:52:00,
2013-01-01 02:02:00,13.0,9.0,-100.00,SSW,207,0.0,2.0,85,-99.99,,,0.00,0.000000,,2013-01-01 10:02:00,
2013-01-01 02:11:00,13.0,9.0,-100.00,SSW,207,0.0,2.0,85,-99.99,,,0.00,0.000000,,2013-01-01 10:11:00,
2013-01-01 02:42:00,13.0,10.0,-100.00,South,184,1.0,2.0,87,-99.99,,,0.00,0.000000,,2013-01-01 10:42:00,
2013-01-01 02:52:00,13.0,10.0,-100.00,South,184,1.0,2.0,87,-99.99,,,0.00,0.000000,,2013-01-01 10:52:00,
2013-01-01 03:02:00,13.0,10.0,-100.00,South,184,1.0,2.0,87,-99.99,,,0.00,0.000000,,2013-01-01 11:02:00,
2013-01-01 03:12:00,13.0,10.0,-100.00,South,184,1.0,2.0,87,-99.99,,,0.00,0.000000,,2013-01-01 11:12:00,
2013-01-01 03:32:00,14.0,11.0,-100.00,WSW,242,0.0,2.0,88,-99.99,,,0.00,0.000000,,2013-01-01 11:32:00,
2013-01-01 03:42:00,14.0,11.0,-100.00,WSW,242,0.0,2.0,88,-99.99,,,0.00,0.000000,,2013-01-01 11:42:00,
2013-01-01 03:53:00,14.0,11.0,-100.00,WSW,242,0.0,2.0,88,-99.99,,,0.00,0.000000,,2013-01-01 11:53:00,
2013-01-01 04:02:00,14.0,11.0,-100.00,WSW,242,0.0,2.0,88,-99.99,,,0.00,0.000000,,2013-01-01 12:02:00,
2013-01-01 04:12:00,14.0,11.0,-100.00,WSW,242,0.0,2.0,88,-99.99,,,0.00,0.000000,,2013-01-01 12:12:00,
2013-01-01 04:32:00,16.0,13.0,-100.00,South,178,1.0,2.0,88,-99.99,,,0.00,0.000000,,2013-01-01 12:32:00,
2013-01-01 04:42:00,16.0,13.0,-100.00,South,178,1.0,2.0,88,-99.99,,,0.00,0.000000,,2013-01-01 12:42:00,
2013-01-01 04:52:00,16.0,13.0,-100.00,South,178,1.0,2.0,88,-99.99,,,0.00,0.000000,,2013-01-01 12:52:00,
2013-01-01 05:02:00,16.0,13.0,-100.00,South,178,1.0,2.0,88,-99.99,,,0.00,0.000000,,2013-01-01 13:02:00,
2013-01-01 05:12:00,16.0,13.0,-100.00,South,178,1.0,2.0,88,-99.99,,,0.00,0.000000,,2013-01-01 13:12:00,
2013-01-01 05:42:00,17.0,14.0,-100.00,NW,321,2.0,5.0,88,-99.99,,,0.00,0.000000,,2013-01-01 13:42:00,
2013-01-01 05:52:00,17.0,14.0,-100.00,NW,321,2.0,5.0,88,-99.99,,,0.00,0.000000,,2013-01-01 13:52:00,
2013-01-01 06:02:00,17.0,14.0,-100.00,NW,321,2.0,5.0,88,-99.99,,,0.00,0.000000,,2013-01-01 14:02:00,
2013-01-01 06:12:00,17.0,14.0,-100.00,NW,321,2.0,5.0,88,-99.99,,,0.00,0.000000,,2013-01-01 14:12:00,
2013-01-01 06:32:00,17.0,14.0,-100.00,SSW,198,1.0,2.0,89,-99.99,,,0.00,0.000000,,2013-01-01 14:32:00,
2013-01-01 06:42:00,17.0,14.0,-100.00,SSW,198,1.0,2.0,89,-99.99,,,0.00,0.000000,,2013-01-01 14:42:00,
2013-01-01 06:53:00,17.0,14.0,-100.00,SSW,198,1.0,2.0,89,-99.99,,,0.00,0.000000,,2013-01-01 14:53:00,
2013-01-01 07:02:00,17.0,14.0,-100.00,SSW,198,1.0,2.0,89,-99.99,,,0.00,0.000000,,2013-01-01 15:02:00,
2013-01-01 07:12:00,17.0,14.0,-100.00,SSW,198,1.0,2.0,89,-99.99,,,0.00,0.000000,,2013-01-01 15:12:00,
2013-01-01 07:33:00,15.0,12.0,-100.00,SSE,159,2.0,5.0,88,-99.99,,,0.00,0.000000,,2013-01-01 15:33:00,
2013-01-01 07:42:00,15.0,12.0,-100.00,SSE,159,2.0,5.0,88,-99.99,,,0.00,0.000000,,2013-01-01 15:42:00,
2013-01-01 07:53:00,15.0,12.0,-100.00,SSE,159,2.0,5.0,88,-99.99,,,0.00,0.000000,,2013-01-01 15:53:00,
2013-01-01 08:02:00,15.0,12.0,-100.00,SSE,159,2.0,5.0,88,-99.99,,,0.00,0.000000,,2013-01-01 16:02:00,
2013-01-01 08:12:00,15.0,12.0,-100.00,SSE,159,2.0,5.0,88,-99.99,,,0.00,0.000000,,2013-01-01 16:12:00,
2013-01-01 08:32:00,12.0,8.0,-100.00,South,184,2.0,4.0,84,-99.99,,,0.00,21.620001,,2013-01-01 16:32:00,
2013-01-01 08:42:00,12.0,8.0,-100.00,South,184,2.0,4.0,84,-99.99,,,0.00,21.620001,,2013-01-01 16:42:00,
2013-01-01 08:53:00,12.0,8.0,-100.00,South,184,2.0,4.0,84,-99.99,,,0.00,21.620001,,2013-01-01 16:53:00,
2013-01-01 09:02:00,12.0,8.0,-100.00,South,184,2.0,4.0,84,-99.99,,,0.00,21.620001,,2013-01-01 17:02:00,
2013-01-01 09:12:00,12.0,8.0,-100.00,South,184,2.0,4.0,84,-99.99,,,0.00,21.620001,,2013-01-01 17:12:00,
2013-01-01 09:33:00,15.0,10.0,-100.00,SW,218,2.0,5.0,80,-99.99,,,0.00,149.919998,,2013-01-01 17:33:00,
2013-01-01 09:42:00,15.0,10.0,-100.00,SW,218,2.0,5.0,80,-99.99,,,0.00,149.919998,,2013-01-01 17:42:00,
2013-01-01 09:53:00,15.0,10.0,-100.00,SW,218,2.0,5.0,80,-99.99,,,0.00,149.919998,,2013-01-01 17:53:00,
2013-01-01 10:03:00,15.0,10.0,-100.00,SW,218,2.0,5.0,80,-99.99,,,0.00,149.919998,,2013-01-01 18:03:00,
2013-01-01 10:12:00,15.0,10.0,-100.00,SW,218,2.0,5.0,80,-99.99,,,0.00,149.919998,,2013-01-01 18:12:00,
2013-01-01 10:33:00,19.0,12.0,-100.00,NNW,332,1.0,4.0,73,-99.99,,,0.00,211.520004,,2013-01-01 18:33:00,
2013-01-01 10:42:00,19.0,12.0,-100.00,NNW,332,1.0,4.0,73,-99.99,,,0.00,211.520004,,2013-01-01 18:42:00,
2013-01-01 10:53:00,19.0,12.0,-100.00,NNW,332,1.0,4.0,73,-99.99,,,0.00,211.520004,,2013-01-01 18:53:00,
2013-01-01 11:02:00,19.0,12.0,-100.00,NNW,332,1.0,4.0,73,-99.99,,,0.00,211.520004,,2013-01-01 19:02:00,
2013-01-01 11:11:00,19.0,12.0,-100.00,NNW,332,1.0,4.0,73,-99.99,,,0.00,211.520004,,2013-01-01 19:11:00,
2013-01-01 11:42:00,22.0,13.0,-100.00,SW,220,2.0,6.0,68,-99.99,,,0.00,253.130005,,2013-01-01 19:42:00,
2013-01-01 11:52:00,22.0,13.0,-100.00,SW,220,2.0,6.0,68,-99.99,,,0.00,253.130005,,2013-01-01 19:52:00,
2013-01-01 12:02:00,22.0,13.0,-100.00,SW,220,2.0,6.0,68,-99.99,,,0.00,253.130005,,2013-01-01 20:02:00,
2013-01-01 12:12:00,22.0,13.0,-100.00,SW,220,2.0,6.0,68,-99.99,,,0.00,253.130005,,2013-01-01 20:12:00,
2013-01-01 12:32:00,26.0,15.0,-100.00,SE,128,2.0,5.0,62,-99.99,,,0.00,169.100006,,2013-01-01 20:32:00,
2013-01-01 12:42:00,26.0,15.0,-100.00,SE,128,2.0,5.0,62,-99.99,,,0.00,169.100006,,2013-01-01 20:42:00,
2013-01-01 12:53:00,26.0,15.0,-100.00,SE,128,2.0,5.0,62,-99.99,,,0.00,169.100006,,2013-01-01 20:53:00,
2013-01-01 13:03:00,26.0,15.0,-100.00,SE,128,2.0,5.0,62,-99.99,,,0.00,169.100006,,2013-01-01 21:03:00,
2013-01-01 13:12:00,26.0,15.0,-100.00,SE,128,2.0,5.0,62,-99.99,,,0.00,169.100006,,2013-01-01 21:12:00,
2013-01-01 13:32:00,30.0,16.0,-100.00,SE,127,1.0,4.0,53,-99.99,,,0.00,372.600006,,2013-01-01 21:32:00,
2013-01-01 13:42:00,30.0,16.0,-100.00,SE,127,1.0,4.0,53,-99.99,,,0.00,372.600006,,2013-01-01 21:42:00,
2013-01-01 13:53:00,30.0,16.0,-100.00,SE,127,1.0,4.0,53,-99.99,,,0.00,372.600006,,2013-01-01 21:53:00,
2013-01-01 14:02:00,30.0,16.0,-100.00,SE,127,1.0,4.0,53,-99.99,,,0.00,372.600006,,2013-01-01 22:02:00,
2013-01-01 14:12:00,30.0,16.0,-100.00,SE,127,1.0,4.0,53,-99.99,,,0.00,372.600006,,2013-01-01 22:12:00,
2013-01-01 14:32:00,33.0,16.0,-100.00,ESE,114,2.0,4.0,50,-99.99,,,0.00,202.339996,,2013-01-01 22:32:00,
2013-01-01 14:42:00,34.0,17.0,-100.00,East,93,1.0,4.0,47,-99.99,,,0.00,53.230000,,2013-01-01 22:42:00,
2013-01-01 14:52:00,34.0,17.0,-100.00,East,93,1.0,4.0,47,-99.99,,,0.00,53.230000,,2013-01-01 22:52:00,
2013-01-01 15:02:00,34.0,17.0,-100.00,East,93,1.0,4.0,47,-99.99,,,0.00,53.230000,,2013-01-01 23:02:00,
2013-01-01 15:12:00,34.0,17.0,-100.00,East,93,1.0,4.0,47,-99.99,,,0.00,53.230000,,2013-01-01 23:12:00,
2013-01-01 15:32:00,30.0,16.0,-100.00,North,3,4.0,8.0,55,-99.99,,,0.00,34.049999,,2013-01-01 23:32:00,
2013-01-01 15:42:00,30.0,16.0,-100.00,North,3,4.0,8.0,55,-99.99,,,0.00,34.049999,,2013-01-01 23:42:00,
2013-01-01 15:52:00,30.0,16.0,-100.00,North,3,4.0,8.0,55,-99.99,,,0.00,34.049999,,2013-01-01 23:52:00,
2013-01-01 16:02:00,30.0,16.0,-100.00,North,3,4.0,8.0,55,-99.99,,,0.00,34.049999,,2013-01-02 00:02:00,
2013-01-01 16:12:00,30.0,16.0,-100.00,North,3,4.0,8.0,55,-99.99,,,0.00,34.049999,,2013-01-02 00:12:00,
2013-01-01 16:42:00,27.0,15.0,-100.00,North,6,2.0,6.0,60,-99.99,,,0.00,13.600000,,2013-01-02 00:42:00,
2013-01-01 16:52:00,27.0,15.0,-100.00,North,6,2.0,6.0,60,-99.99,,,0.00,13.600000,,2013-01-02 00:52:00,
2013-01-01 17:02:00,27.0,15.0,-100.00,North,6,2.0,6.0,60,-99.99,,,0.00,13.600000,,2013-01-02 01:02:00,
2013-01-01 17:11:00,27.0,15.0,-100.00,North,6,2.0,6.0,60,-99.99,,,0.00,13.600000,,2013-01-02 01:11:00,
2013-01-01 17:32:00,23.0,16.0,-100.00,North,354,1.0,4.0,72,-99.99,,,0.00,0.000000,,2013-01-02 01:32:00,
2013-01-01 17:42:00,23.0,16.0,-100.00,North,354,1.0,4.0,72,-99.99,,,0.00,0.000000,,2013-01-02 01:42:00,
2013-01-01 17:52:00,23.0,16.0,-100.00,North,354,1.0,4.0,72,-99.99,,,0.00,0.000000,,2013-01-02 01:52:00,
2013-01-01 18:02:00,23.0,16.0,-100.00,North,354,1.0,4.0,72,-99.99,,,0.00,0.000000,,2013-01-02 02:02:00,
2013-01-01 18:12:00,23.0,16.0,-100.00,North,354,1.0,4.0,72,-99.99,,,0.00,0.000000,,2013-01-02 02:12:00,
2013-01-01 18:32:00,19.0,14.0,-100.00,ENE,69,1.0,2.0,80,-99.99,,,0.00,0.000000,,2013-01-02 02:32:00,
2013-01-01 18:42:00,19.0,14.0,-100.00,ENE,69,1.0,2.0,80,-99.99,,,0.00,0.000000,,2013-01-02 02:42:00,
2013-01-01 18:53:00,19.0,14.0,-100.00,ENE,69,1.0,2.0,80,-99.99,,,0.00,0.000000,,2013-01-02 02:53:00,
2013-01-01 19:02:00,19.0,14.0,-100.00,ENE,69,1.0,2.0,80,-99.99,,,0.00,0.000000,,2013-01-02 03:02:00,
2013-01-01 19:11:00,19.0,14.0,-100.00,ENE,69,1.0,2.0,80,-99.99,,,0.00,0.000000,,2013-01-02 03:11:00,
2013-01-01 19:42:00,16.0,13.0,-100.00,East,101,0.0,2.0,87,-99.99,,,0.00,0.000000,,2013-01-02 03:42:00,
2013-01-01 19:53:00,16.0,13.0,-100.00,East,101,0.0,2.0,87,-99.99,,,0.00,0.000000,,2013-01-02 03:53:00,
2013-01-01 20:02:00,16.0,13.0,-100.00,East,101,0.0,2.0,87,-99.99,,,0.00,0.000000,,2013-01-02 04:02:00,
2013-01-01 20:12:00,16.0,13.0,-100.00,East,101,0.0,2.0,87,-99.99,,,0.00,0.000000,,2013-01-02 04:12:00,
2013-01-01 20:32:00,14.0,11.0,-100.00,East,93,0.0,0.0,87,-99.99,,,0.00,0.000000,,2013-01-02 04:32:00,
2013-01-01 20:42:00,14.0,11.0,-100.00,East,93,0.0,0.0,87,-99.99,,,0.00,0.000000,,2013-01-02 04:42:00,
2013-01-01 20:52:00,14.0,11.0,-100.00,East,93,0.0,0.0,87,-99.99,,,0.00,0.000000,,2013-01-02 04:52:00,
2013-01-01 21:03:00,14.0,11.0,-100.00,East,93,0.0,0.0,87,-99.99,,,0.00,0.000000,,2013-01-02 05:03:00,
2013-01-01 21:12:00,14.0,11.0,-100.00,East,93,0.0,0.0,87,-99.99,,,0.00,0.000000,,2013-01-02 05:12:00,
2013-01-01 21:42:00,12.0,8.0,-100.00,East,92,0.0,0.0,85,-99.99,,,0.00,0.000000,,2013-01-02 05:42:00,
2013-01-01 21:53:00,12.0,8.0,-100.00,East,92,0.0,0.0,85,-99.99,,,0.00,0.000000,,2013-01-02 05:53:00,
2013-01-01 22:02:00,12.0,8.0,-100.00,East,92,0.0,0.0,85,-99.99,,,0.00,0.000000,,2013-01-02 06:02:00,
2013-01-01 22:11:00,12.0,8.0,-100.00,East,92,0.0,0.0,85,-99.99,,,0.00,0.000000,,2013-01-02 06:11:00,
2013-01-01 22:32:00,11.0,8.0,-100.00,ENE,76,0.0,2.0,88,-99.99,,,0.00,0.000000,,2013-01-02 06:32:00,
2013-01-01 22:42:00,11.0,8.0,-100.00,ENE,76,0.0,2.0,88,-99.99,,,0.00,0.000000,,2013-01-02 06:42:00,
2013-01-01 22:52:00,11.0,8.0,-100.00,ENE,76,0.0,2.0,88,-99.99,,,0.00,0.000000,,2013-01-02 06:52:00,
2013-01-01 23:02:00,11.0,8.0,-100.00,ENE,76,0.0,2.0,88,-99.99,,,0.00,0.000000,,2013-01-02 07:02:00,
2013-01-01 23:12:00,11.0,8.0,-100.00,ENE,76,0.0,2.0,88,-99.99,,,0.00,0.000000,,2013-01-02 07:12:00,
2013-01-01 23:32:00,10.0,6.0,-100.00,NE,45,0.0,1.0,84,-99.99,,,0.00,0.000000,,2013-01-02 07:32:00,
2013-01-01 23:42:00,10.0,6.0,-100.00,NE,45,0.0,1.0,84,-99.99,,,0.00,0.000000,,2013-01-02 07:42:00,
2013-01-01 23:52:00,10.0,6.0,-100.00,NE,45,0.0,1.0,84,-99.99,,,0.00,0.000000,,2013-01-02 07:52:00,